Time;durP1;ratioP1;P1;durP2;ratioP2;P2;SDS_P1;SDS_P2;PMS_P1;PMS_P2;Temp;Humidity;BMP_temperature;BMP_pressure;BME280_temperature;BME280_humidity;BME280_pressure;Samples;Min_cycle;Max_cycle;Signal;HPM_P1;HPM_P2
2021/07/15 07:06:58;;;;;;;5.70;2.33;;;22.30;71.20;;;;;;4827889;29;20052;-62
2021/07/15 07:09:24;;;;;;;10.50;3.10;;;22.30;71.30;;;;;;4862379;29;20041;-61
2021/07/15 07:11:49;;;;;;;3.70;1.88;;;22.30;71.30;;;;;;4862428;29;20029;-61
2021/07/15 07:14:15;;;;;;;4.60;2.13;;;22.30;71.30;;;;;;4862176;29;20040;-61
2021/07/15 07:16:40;;;;;;;4.28;2.30;;;22.30;71.20;;;;;;4862279;29;20033;-63
2021/07/15 07:19:06;;;;;;;5.32;2.28;;;22.30;71.30;;;;;;4862400;29;20036;-62
2021/07/15 07:21:31;;;;;;;3.35;2.08;;;22.30;71.20;;;;;;4861058;29;20033;-62
2021/07/15 07:23:57;;;;;;;3.75;2.00;;;22.30;71.30;;;;;;4862206;29;20120;-63
2021/07/15 07:26:23;;;;;;;3.65;2.30;;;22.40;71.20;;;;;;4861711;29;20113;-64
2021/07/15 07:28:48;;;;;;;2.50;1.55;;;22.40;71.20;;;;;;4862342;29;20521;-65
2021/07/15 07:31:14;;;;;;;4.88;2.08;;;22.40;71.10;;;;;;4862020;29;20369;-63
2021/07/15 07:33:40;;;;;;;3.60;1.92;;;22.40;71.20;;;;;;4862123;29;20053;-65
2021/07/15 07:36:06;;;;;;;4.45;2.17;;;22.40;71.10;;;;;;4861611;29;20120;-65
2021/07/15 07:38:32;;;;;;;6.82;2.55;;;22.40;71.10;;;;;;4861985;29;20481;-65
2021/07/15 07:40:57;;;;;;;3.55;2.15;;;22.50;71.00;;;;;;4861516;29;20109;-64
2021/07/15 07:43:23;;;;;;;4.45;2.15;;;22.50;71.00;;;;;;4861741;29;20120;-66
2021/07/15 07:45:48;;;;;;;3.55;2.03;;;22.50;71.00;;;;;;4860019;29;20030;-65
2021/07/15 07:48:14;;;;;;;4.55;2.08;;;22.50;71.00;;;;;;4861928;29;20036;-62
2021/07/15 07:50:39;;;;;;;3.33;2.03;;;22.50;71.00;;;;;;4861535;29;20084;-64
2021/07/15 07:53:05;;;;;;;4.47;1.80;;;22.50;71.00;;;;;;4861644;29;20048;-62
2021/07/15 07:55:30;;;;;;;4.18;2.08;;;22.50;70.90;;;;;;4861482;29;20048;-63
2021/07/15 07:57:56;;;;;;;4.95;2.08;;;22.50;70.90;;;;;;4861125;29;20174;-62
2021/07/15 08:00:21;;;;;;;3.45;2.00;;;22.50;70.90;;;;;;4860344;29;20038;-62
2021/07/15 08:02:48;;;;;;;4.15;1.95;;;22.60;70.90;;;;;;4890779;23;20061;-59
2021/07/15 08:05:18;;;;;;;3.50;2.10;;;22.60;70.80;;;;;;4879841;29;20133;-60
2021/07/15 08:07:44;;;;;;;3.85;2.08;;;22.60;70.80;;;;;;4879118;29;20033;-61
2021/07/15 08:10:11;;;;;;;6.47;2.30;;;22.60;70.80;;;;;;4879836;29;20384;-63
2021/07/15 08:12:38;;;;;;;4.25;1.92;;;22.60;70.70;;;;;;4878779;29;20037;-62
2021/07/15 08:15:05;;;;;;;3.38;1.98;;;22.70;70.70;;;;;;4879910;29;20193;-63
2021/07/15 08:17:31;;;;;;;3.65;1.80;;;22.70;70.60;;;;;;4879245;29;20064;-62
2021/07/15 08:19:56;;;;;;;3.92;2.00;;;22.70;70.70;;;;;;4879721;29;20057;-60
2021/07/15 08:22:22;;;;;;;4.00;1.80;;;22.70;70.70;;;;;;4879858;29;20085;-61
2021/07/15 08:24:47;;;;;;;4.25;1.90;;;22.70;70.70;;;;;;4879542;29;20044;-61
2021/07/15 08:27:13;;;;;;;4.60;2.10;;;22.70;70.70;;;;;;4879537;29;20072;-61
2021/07/15 08:29:38;;;;;;;3.40;1.90;;;22.70;70.70;;;;;;4879144;29;20025;-61
2021/07/15 08:32:06;;;;;;;3.70;1.95;;;22.70;70.70;;;;;;4879700;29;20428;-60
2021/07/15 08:34:31;;;;;;;4.13;2.00;;;22.70;70.60;;;;;;4879464;29;20112;-61
2021/07/15 08:36:57;;;;;;;4.07;1.80;;;22.70;70.70;;;;;;4879423;29;20104;-61
2021/07/15 08:39:22;;;;;;;3.38;1.83;;;22.70;70.60;;;;;;4878826;29;20037;-61
2021/07/15 08:41:49;;;;;;;3.55;1.90;;;22.80;70.50;;;;;;4879454;29;20516;-57
2021/07/15 08:44:16;;;;;;;3.85;1.85;;;22.80;70.50;;;;;;4879317;29;20052;-62
2021/07/15 08:46:47;;;;;;;4.78;1.92;;;22.80;70.50;;;;;;4879381;29;20080;-62
2021/07/15 08:49:16;;;;;;;6.05;2.35;;;22.80;70.50;;;;;;4877301;29;20101;-61
2021/07/15 08:51:43;;;;;;;4.50;2.17;;;22.80;70.50;;;;;;4879117;29;20461;-61
2021/07/15 08:54:12;;;;;;;4.03;2.08;;;22.80;70.50;;;;;;4879189;29;20048;-60
2021/07/15 08:56:39;;;;;;;4.10;2.00;;;22.80;70.40;;;;;;4879512;29;20025;-60
2021/07/15 08:59:06;;;;;;;3.60;1.67;;;22.80;70.40;;;;;;4878650;29;20085;-62
2021/07/15 09:01:34;;;;;;;3.08;1.73;;;22.80;70.40;;;;;;4879187;29;20046;-62
2021/07/15 09:04:01;;;;;;;3.63;1.90;;;22.90;70.30;;;;;;4879070;29;20029;-62
2021/07/15 09:06:27;;;;;;;4.47;1.90;;;22.90;70.30;;;;;;4877778;29;20453;-60
2021/07/15 09:08:54;;;;;;;4.60;2.05;;;22.90;70.30;;;;;;4878931;29;20374;-61
2021/07/15 09:11:20;;;;;;;3.35;2.00;;;23.00;70.20;;;;;;4878243;29;20033;-60
2021/07/15 09:13:47;;;;;;;3.42;1.70;;;22.90;70.20;;;;;;4878603;29;20033;-61
2021/07/15 09:16:14;;;;;;;3.70;1.67;;;22.90;70.20;;;;;;4879065;29;20061;-61
2021/07/15 09:18:58;;;;;;;5.00;2.40;;;22.90;70.20;;;;;;4877428;29;20457;-61
2021/07/15 09:21:30;;;;;;;5.13;1.70;;;22.90;70.30;;;;;;4876318;29;20040;-60
2021/07/15 09:23:56;;;;;;;6.05;1.92;;;22.90;70.30;;;;;;4878123;29;20041;-60
2021/07/15 09:26:21;;;;;;;6.13;2.30;;;22.90;70.30;;;;;;4878025;29;20105;-60
2021/07/15 09:28:47;;;;;;;3.30;1.70;;;22.90;70.20;;;;;;4878045;29;20053;-60
2021/07/15 09:31:18;;;;;;;3.70;2.00;;;22.90;70.20;;;;;;4879333;29;20029;-60
2021/07/15 09:33:45;;;;;;;3.70;1.98;;;22.90;70.30;;;;;;4879444;29;20057;-60
2021/07/15 09:36:12;;;;;;;4.03;1.58;;;22.90;70.20;;;;;;4879491;29;20225;-59
2021/07/15 09:38:39;;;;;;;3.08;1.90;;;22.90;70.10;;;;;;4879220;29;20101;-60
2021/07/15 09:41:05;;;;;;;5.68;2.10;;;23.00;70.10;;;;;;4879247;29;20037;-59
2021/07/15 09:43:33;;;;;;;4.82;2.20;;;22.90;70.10;;;;;;4878923;29;20043;-60
2021/07/15 09:46:20;;;;;;;3.90;1.90;;;23.00;70.10;;;;;;4879085;29;20025;-59
2021/07/15 09:48:48;;;;;;;5.93;2.25;;;23.00;70.20;;;;;;4878970;29;20068;-59
2021/07/15 09:51:15;;;;;;;3.45;1.80;;;23.00;70.20;;;;;;4879110;29;20036;-59
2021/07/15 09:53:41;;;;;;;7.30;2.00;;;23.00;70.20;;;;;;4878989;29;20047;-60
2021/07/15 09:56:16;;;;;;;3.47;2.00;;;23.00;70.10;;;;;;4878917;29;20033;-59
2021/07/15 09:58:47;;;;;;;4.82;2.22;;;23.00;70.10;;;;;;4878959;29;20093;-59
2021/07/15 10:01:15;;;;;;;3.97;1.80;;;23.00;70.10;;;;;;4878729;29;20100;-61
2021/07/15 10:03:43;;;;;;;3.28;1.75;;;23.00;70.20;;;;;;4879150;29;20033;-59
2021/07/15 10:06:11;;;;;;;4.75;2.30;;;23.00;70.10;;;;;;4878927;29;20041;-59
2021/07/15 10:08:39;;;;;;;3.40;1.77;;;23.00;70.10;;;;;;4877562;29;20025;-60
2021/07/15 10:11:16;;;;;;;3.97;2.00;;;23.00;70.10;;;;;;4879143;29;20113;-60
2021/07/15 10:13:43;;;;;;;3.85;1.90;;;23.00;70.00;;;;;;4878901;29;20037;-60
2021/07/15 10:16:09;;;;;;;4.40;2.15;;;23.00;70.10;;;;;;4878817;29;20024;-60
2021/07/15 10:18:48;;;;;;;5.40;2.13;;;23.00;70.10;;;;;;4878879;29;20037;-61
2021/07/15 10:21:14;;;;;;;2.55;1.65;;;23.00;70.10;;;;;;4878852;29;20409;-61
2021/07/15 10:23:41;;;;;;;4.57;2.00;;;23.00;70.00;;;;;;4878775;29;20045;-61
2021/07/15 10:26:12;;;;;;;3.63;1.63;;;23.00;70.00;;;;;;4878756;29;20021;-60
2021/07/15 10:28:41;;;;;;;3.50;2.00;;;23.00;70.00;;;;;;4878969;29;20365;-61
2021/07/15 10:31:08;;;;;;;4.20;1.80;;;23.00;70.00;;;;;;4881948;29;20033;-61
2021/07/15 10:33:34;;;;;;;10.45;2.20;;;23.00;70.00;;;;;;4880986;29;20040;-60
2021/07/15 10:36:02;;;;;;;3.60;1.80;;;23.10;70.00;;;;;;4882401;29;20070;-60
2021/07/15 10:38:30;;;;;;;3.50;1.80;;;23.10;69.80;;;;;;4882240;29;20525;-61
2021/07/15 10:40:57;;;;;;;4.22;2.10;;;23.10;69.90;;;;;;4882289;29;20124;-61
2021/07/15 10:43:23;;;;;;;4.65;1.83;;;23.10;69.90;;;;;;4882156;29;20033;-60
2021/07/15 10:45:49;;;;;;;4.85;1.75;;;23.10;69.80;;;;;;4882106;29;20037;-60
2021/07/15 10:48:15;;;;;;;3.55;1.90;;;23.10;69.80;;;;;;4881993;29;20033;-60
2021/07/15 10:50:43;;;;;;;3.88;1.70;;;23.10;69.90;;;;;;4880823;29;20132;-61
2021/07/15 10:53:09;;;;;;;4.90;2.10;;;23.10;69.80;;;;;;4882008;29;20053;-61
2021/07/15 10:55:36;;;;;;;5.43;2.05;;;23.10;69.80;;;;;;4882083;29;20052;-60
2021/07/15 10:58:02;;;;;;;4.50;1.77;;;23.10;69.80;;;;;;4882030;29;20036;-61
2021/07/15 11:00:28;;;;;;;3.28;1.80;;;23.10;69.80;;;;;;4881709;29;20029;-61
2021/07/15 11:03:23;;;;;;;4.82;2.03;;;23.10;69.80;;;;;;4881542;29;20049;-60
2021/07/15 11:05:50;;;;;;;;;;;23.10;69.80;;;;;;4882190;29;20377;-60
2021/07/15 11:08:17;;;;;;;4.50;1.60;;;23.00;69.80;;;;;;4881792;29;19914;-60
2021/07/15 11:10:44;;;;;;;3.15;1.73;;;23.00;69.90;;;;;;4880351;29;20491;-60
2021/07/15 11:13:10;;;;;;;5.20;2.00;;;23.10;69.80;;;;;;4881533;29;20021;-60
2021/07/15 11:15:55;;;;;;;5.38;2.00;;;23.00;69.90;;;;;;4881426;29;20028;-59
2021/07/15 11:18:57;;;;;;;3.55;1.95;;;23.00;69.90;;;;;;4881489;29;20556;-59
2021/07/15 11:21:30;;;;;;;5.18;1.92;;;23.00;69.90;;;;;;4870806;29;20330;-60
2021/07/15 11:24:05;;;;;;;3.67;1.60;;;23.00;69.90;;;;;;4881438;29;20062;-60
2021/07/15 11:26:38;;;;;;;9.18;2.75;;;23.00;70.00;;;;;;4881391;29;20021;-60
2021/07/15 11:29:04;;;;;;;3.40;1.88;;;23.00;69.90;;;;;;4881465;29;20100;-61
2021/07/15 11:31:47;;;;;;;3.45;1.92;;;23.00;69.90;;;;;;4880113;29;20388;-60
2021/07/15 11:34:40;;;;;;;3.97;2.00;;;23.00;69.90;;;;;;4881048;29;20185;-59
2021/07/15 11:37:34;;;;;;;3.17;1.52;;;23.00;69.90;;;;;;4881390;29;20081;-60
2021/07/15 11:40:01;;;;;;;4.77;2.07;;;23.00;69.90;;;;;;4881161;29;20057;-60
2021/07/15 11:42:32;;;;;;;3.10;1.80;;;23.00;69.80;;;;;;4880068;29;20107;-59
2021/07/15 11:45:03;;;;;;;3.38;1.85;;;23.10;69.80;;;;;;4880922;29;20056;-59
2021/07/15 11:47:52;;;;;;;4.60;2.17;;;23.00;69.80;;;;;;4881059;29;20040;-59
2021/07/15 11:50:40;;;;;;;3.40;1.98;;;23.10;69.80;;;;;;4881125;29;20124;-59
2021/07/15 11:53:21;;;;;;;4.20;2.15;;;23.10;69.70;;;;;;4880794;29;20485;-60
2021/07/15 11:55:50;;;;;;;3.30;1.60;;;23.10;69.80;;;;;;4880896;29;20099;-60
2021/07/15 11:58:45;;;;;;;3.83;1.90;;;23.10;69.80;;;;;;4880893;29;20025;-60
2021/07/15 12:01:16;;;;;;;5.07;2.10;;;23.10;69.80;;;;;;4880776;29;20025;-61
2021/07/15 12:04:05;;;;;;;3.42;1.95;;;23.10;69.70;;;;;;4880963;29;20045;-60
2021/07/15 12:06:32;;;;;;;3.97;1.98;;;23.10;69.70;;;;;;4880898;29;20357;-61
2021/07/15 12:09:08;;;;;;;4.43;2.10;;;23.20;69.70;;;;;;4880649;29;20484;-60
2021/07/15 12:11:34;;;;;;;3.25;1.60;;;23.20;69.70;;;;;;4879329;29;20033;-61
2021/07/15 12:14:01;;;;;;;5.95;2.20;;;23.20;69.70;;;;;;4878726;29;20036;-62
2021/07/15 12:16:28;;;;;;;3.40;2.10;;;23.20;69.60;;;;;;4880076;29;20037;-62
2021/07/15 12:19:05;;;;;;;4.25;2.10;;;23.30;69.60;;;;;;4879618;29;20033;-63
2021/07/15 12:21:31;;;;;;;3.85;1.98;;;23.30;69.50;;;;;;4877832;29;20109;-62
2021/07/15 12:24:08;;;;;;;3.13;1.70;;;23.20;69.50;;;;;;4879703;29;20051;-62
2021/07/15 12:26:35;;;;;;;5.43;2.38;;;23.20;69.60;;;;;;4880297;29;20579;-62
2021/07/15 12:29:02;;;;;;;3.53;2.00;;;23.20;69.60;;;;;;4880570;29;20112;-62
2021/07/15 12:31:30;;;;;;;3.80;1.77;;;23.20;69.60;;;;;;4880231;29;20057;-62
2021/07/15 12:34:02;;;;;;;4.57;2.35;;;23.20;69.60;;;;;;4880080;29;20070;-61
2021/07/15 12:36:28;;;;;;;4.13;2.20;;;23.20;69.60;;;;;;4879176;29;20053;-61
2021/07/15 12:38:59;;;;;;;4.65;2.30;;;23.20;69.50;;;;;;4879412;29;20128;-61
2021/07/15 12:41:29;;;;;;;4.20;2.03;;;23.20;69.50;;;;;;4879649;29;20032;-61
2021/07/15 12:43:57;;;;;;;3.90;2.17;;;23.30;69.40;;;;;;4878415;29;20047;-61
2021/07/15 12:46:31;;;;;;;3.38;2.08;;;23.30;69.30;;;;;;4879633;29;20032;-61
2021/07/15 12:48:58;;;;;;;;;;;23.30;69.30;;;;;;4879857;29;20491;-61
2021/07/15 12:51:26;;;;;;;4.28;1.92;;;23.30;69.40;;;;;;4878030;29;20291;-61
2021/07/15 12:53:53;;;;;;;6.22;4.03;;;23.30;69.40;;;;;;4877902;29;20099;-64
2021/07/15 12:56:27;;;;;;;5.25;2.70;;;23.30;69.30;;;;;;4878788;29;20031;-62
2021/07/15 12:59:09;;;;;;;5.15;2.33;;;23.30;69.30;;;;;;4878013;29;20041;-61
2021/07/15 13:01:37;;;;;;;4.47;2.03;;;23.30;69.30;;;;;;4879064;29;20069;-60
2021/07/15 13:04:22;;;;;;;4.32;2.20;;;23.30;69.30;;;;;;4879177;29;20044;-62
2021/07/15 13:06:54;;;;;;;4.10;2.30;;;23.40;69.30;;;;;;4878638;29;20032;-61
2021/07/15 13:09:36;;;;;;;6.47;2.50;;;23.30;69.20;;;;;;4878838;29;20036;-60
2021/07/15 13:15:11;;;;;;;6.93;2.10;;;23.30;69.40;;;;;;4878786;29;20031;-59
2021/07/15 13:17:47;;;;;;;5.55;2.50;;;23.30;69.50;;;;;;4878874;29;20400;-61
2021/07/15 13:20:21;;;;;;;4.05;2.00;;;23.30;69.50;;;;;;4879040;29;20029;-61
2021/07/15 13:22:52;;;;;;;4.18;2.30;;;23.30;69.50;;;;;;4878733;29;20031;-60
2021/07/15 13:25:22;;;;;;;4.60;2.40;;;23.30;69.50;;;;;;4878642;29;20041;-61
2021/07/15 13:27:48;;;;;;;5.05;2.38;;;23.30;69.40;;;;;;4878704;29;20021;-60
2021/07/15 13:30:17;;;;;;;4.35;2.25;;;23.30;69.50;;;;;;4879101;29;20029;-60
2021/07/15 13:32:42;;;;;;;3.90;2.40;;;23.30;69.50;;;;;;4879136;29;20052;-60
2021/07/15 13:35:13;;;;;;;5.47;2.72;;;23.30;69.50;;;;;;4879322;29;20477;-60
2021/07/15 13:37:39;;;;;;;4.43;2.50;;;23.30;69.40;;;;;;4879325;29;20380;-60
2021/07/15 13:40:23;;;;;;;4.82;2.40;;;23.30;69.40;;;;;;4878072;29;20029;-60
2021/07/15 13:42:49;;;;;;;5.50;2.70;;;23.30;69.40;;;;;;4879264;29;20093;-60
2021/07/15 13:45:24;;;;;;;5.03;2.60;;;23.30;69.40;;;;;;4879357;29;20065;-60
2021/07/15 13:47:49;;;;;;;5.28;2.78;;;23.30;69.50;;;;;;4879356;29;20032;-60
2021/07/15 13:50:26;;;;;;;5.00;2.50;;;23.30;69.40;;;;;;4879223;29;20029;-59
2021/07/15 13:52:58;;;;;;;4.22;2.42;;;23.30;69.40;;;;;;4878958;29;20040;-59
2021/07/15 13:55:25;;;;;;;5.63;2.10;;;23.40;69.30;;;;;;4878983;29;20036;-59
2021/07/15 13:57:57;;;;;;;8.63;2.58;;;23.40;69.30;;;;;;4878725;29;20384;-59
2021/07/15 14:00:31;;;;;;;5.50;2.35;;;23.40;69.30;;;;;;4877574;29;20021;-59
2021/07/15 14:02:59;;;;;;;4.75;2.35;;;23.40;69.30;;;;;;4878589;29;20093;-59
2021/07/15 14:05:30;;;;;;;6.03;2.50;;;23.40;69.30;;;;;;4880978;29;20048;-59
2021/07/15 14:08:02;;;;;;;4.20;2.15;;;23.30;69.30;;;;;;4883055;29;20124;-60
2021/07/15 14:10:29;;;;;;;10.77;2.40;;;23.40;69.20;;;;;;4882704;29;20036;-60
2021/07/15 14:12:56;;;;;;;4.20;2.20;;;23.40;69.20;;;;;;4882726;29;20033;-60
2021/07/15 14:15:22;;;;;;;4.35;2.30;;;23.40;69.10;;;;;;4881378;29;20107;-60
2021/07/15 14:18:11;;;;;;;6.10;2.28;;;23.50;69.00;;;;;;4882470;29;20540;-60
2021/07/15 14:20:45;;;;;;;3.47;2.08;;;23.40;69.20;;;;;;4882490;29;20531;-60
2021/07/15 14:23:15;;;;;;;5.15;2.72;;;23.50;69.10;;;;;;4882370;29;20496;-60
2021/07/15 14:25:42;;;;;;;3.53;2.13;;;23.50;69.10;;;;;;4882529;29;20454;-60
2021/07/15 14:28:08;;;;;;;5.00;2.70;;;23.50;69.10;;;;;;4882364;29;20501;-61
2021/07/15 14:30:36;;;;;;;6.53;2.50;;;23.50;69.10;;;;;;4882447;29;20116;-60
2021/07/15 14:33:03;;;;;;;4.40;2.30;;;23.50;69.10;;;;;;4882408;29;20044;-60
2021/07/15 14:35:30;;;;;;;4.40;2.53;;;23.50;69.10;;;;;;4882573;29;20093;-60
2021/07/15 14:37:55;;;;;;;5.35;2.38;;;23.50;69.10;;;;;;4882245;29;20029;-61
2021/07/15 14:40:21;;;;;;;4.70;2.50;;;23.50;69.10;;;;;;4882280;29;20033;-60
2021/07/15 14:42:48;;;;;;;5.50;2.47;;;23.50;69.10;;;;;;4882187;29;20556;-60
2021/07/15 14:45:14;;;;;;;4.50;2.35;;;23.50;69.10;;;;;;4880604;29;20037;-61
2021/07/15 14:47:41;;;;;;;5.13;2.42;;;23.50;69.10;;;;;;4880629;29;20108;-59
2021/07/15 14:50:09;;;;;;;4.22;2.53;;;23.50;69.10;;;;;;4881460;29;20061;-61
2021/07/15 14:52:35;;;;;;;5.00;2.60;;;23.50;69.10;;;;;;4881332;29;20087;-60
2021/07/15 14:55:02;;;;;;;5.13;2.80;;;23.50;69.20;;;;;;4881522;29;20033;-59
2021/07/15 14:57:27;;;;;;;5.68;3.05;;;23.50;69.20;;;;;;4879306;29;20504;-60
2021/07/15 14:59:53;;;;;;;8.25;4.50;;;23.50;69.10;;;;;;4881370;29;20037;-60
2021/07/15 15:02:18;;;;;;;8.65;4.65;;;23.50;69.30;;;;;;4880804;29;20052;-60
2021/07/15 15:04:44;;;;;;;11.65;6.60;;;23.50;69.40;;;;;;4880899;29;20052;-60
2021/07/15 15:07:10;;;;;;;10.90;7.97;;;23.50;69.60;;;;;;4880412;29;20021;-62
2021/07/15 15:09:36;;;;;;;16.85;8.05;;;23.50;69.60;;;;;;4879912;29;20044;-62
2021/07/15 15:12:01;;;;;;;12.93;8.07;;;23.50;69.60;;;;;;4879241;29;20033;-62
2021/07/15 15:14:27;;;;;;;12.98;8.75;;;23.50;69.60;;;;;;4880910;29;20029;-63
2021/07/15 15:16:53;;;;;;;16.02;9.43;;;23.50;69.80;;;;;;4880403;29;20061;-65
2021/07/15 15:19:19;;;;;;;13.85;9.25;;;23.50;69.80;;;;;;4881316;29;20687;-66
2021/07/15 15:21:46;;;;;;;15.25;8.80;;;23.60;69.90;;;;;;4879839;29;20496;-63
2021/07/15 15:24:11;;;;;;;11.70;8.85;;;23.60;69.80;;;;;;4881177;29;20056;-63
2021/07/15 15:26:37;;;;;;;15.48;10.70;;;23.60;70.30;;;;;;4881386;29;20029;-63
2021/07/15 15:29:03;;;;;;;11.45;7.95;;;23.60;70.60;;;;;;4881340;29;20033;-63
2021/07/15 15:31:29;;;;;;;13.38;9.15;;;23.70;70.40;;;;;;4881099;29;20077;-63
2021/07/15 15:33:55;;;;;;;12.77;8.95;;;23.60;70.50;;;;;;4881210;29;20025;-63
2021/07/15 15:36:21;;;;;;;13.65;9.85;;;23.60;70.60;;;;;;4881097;29;20033;-63
2021/07/15 15:38:46;;;;;;;18.20;9.90;;;23.60;70.50;;;;;;4881055;29;20035;-63
2021/07/15 15:41:12;;;;;;;15.65;9.10;;;23.60;71.00;;;;;;4881038;29;20036;-65
2021/07/15 15:43:41;;;;;;;12.05;8.48;;;23.60;70.90;;;;;;4880832;29;20033;-65
2021/07/15 15:46:09;;;;;;;12.93;8.80;;;23.60;70.90;;;;;;4881151;29;20081;-63
2021/07/15 15:48:35;;;;;;;13.35;9.05;;;23.60;70.80;;;;;;4879693;29;20086;-64
2021/07/15 15:51:00;;;;;;;12.23;8.65;;;23.70;70.70;;;;;;4880918;29;20037;-64
2021/07/15 15:53:26;;;;;;;11.30;7.68;;;23.70;71.00;;;;;;4880795;29;20021;-64
2021/07/15 15:55:53;;;;;;;10.15;7.60;;;23.70;70.60;;;;;;4880715;29;20029;-64
2021/07/15 15:58:19;;;;;;;11.13;8.43;;;23.70;71.00;;;;;;4879549;29;20101;-64
2021/07/15 16:00:45;;;;;;;12.23;8.02;;;23.70;71.20;;;;;;4880705;29;20505;-64
2021/07/15 16:03:11;;;;;;;11.60;7.75;;;23.60;71.20;;;;;;4880878;29;20518;-64
2021/07/15 16:05:37;;;;;;;10.63;7.38;;;23.60;71.20;;;;;;4879346;29;20073;-65
2021/07/15 16:08:02;;;;;;;11.48;7.47;;;23.60;71.60;;;;;;4880645;29;20112;-64
2021/07/15 16:10:30;;;;;;;11.40;6.75;;;23.60;71.50;;;;;;4880648;29;20033;-64
2021/07/15 16:12:56;;;;;;;12.50;7.53;;;23.60;71.50;;;;;;4880552;29;20480;-63
2021/07/15 16:15:23;;;;;;;10.43;6.68;;;23.60;71.80;;;;;;4880491;29;20089;-64
2021/07/15 16:17:49;;;;;;;11.05;7.25;;;23.50;71.70;;;;;;4879138;29;20469;-65
2021/07/15 16:20:18;;;;;;;8.52;6.35;;;23.50;72.20;;;;;;4880411;29;20071;-64
2021/07/15 16:22:44;;;;;;;11.02;6.97;;;23.60;72.10;;;;;;4880317;29;20038;-64
2021/07/15 16:25:12;;;;;;;12.05;6.70;;;23.50;72.80;;;;;;4880153;29;20036;-64
2021/07/15 16:27:38;;;;;;;9.40;5.57;;;23.50;72.70;;;;;;4878881;29;20408;-64
2021/07/15 16:30:06;;;;;;;10.00;5.90;;;23.50;72.20;;;;;;4880276;29;20033;-64
2021/07/15 16:32:32;;;;;;;10.00;7.07;;;23.50;72.40;;;;;;4880252;29;20021;-64
2021/07/15 16:34:58;;;;;;;9.13;6.80;;;23.50;72.50;;;;;;4880119;29;20126;-64
2021/07/15 16:37:24;;;;;;;10.68;6.55;;;23.50;72.60;;;;;;4878785;29;20488;-64
2021/07/15 16:39:50;;;;;;;10.68;6.85;;;23.50;73.10;;;;;;4880311;29;20112;-64
2021/07/15 16:42:16;;;;;;;12.00;5.93;;;23.50;72.90;;;;;;4879986;29;20161;-65
2021/07/15 16:44:41;;;;;;;10.20;6.22;;;23.50;72.80;;;;;;4880105;29;20040;-64
2021/07/15 16:47:07;;;;;;;9.82;6.60;;;23.50;73.20;;;;;;4879963;29;20031;-64
2021/07/15 16:49:32;;;;;;;9.48;5.78;;;23.50;73.00;;;;;;4878607;29;20130;-64
2021/07/15 16:51:59;;;;;;;9.50;6.18;;;23.50;72.60;;;;;;4879916;29;20481;-62
2021/07/15 16:54:24;;;;;;;9.98;5.78;;;23.50;72.70;;;;;;4879837;29;20033;-61
2021/07/15 16:56:50;;;;;;;9.77;3.60;;;23.50;72.30;;;;;;4879827;29;20025;-63
2021/07/15 16:59:15;;;;;;;10.20;5.88;;;23.60;71.60;;;;;;4878601;29;20069;-64
2021/07/15 17:01:41;;;;;;;9.88;5.93;;;23.50;72.40;;;;;;4879603;29;20045;-64
2021/07/15 17:04:06;;;;;;;9.20;5.80;;;23.50;72.20;;;;;;4879695;29;20037;-64
2021/07/15 17:06:33;;;;;;;8.57;6.28;;;23.50;72.40;;;;;;4878442;29;20037;-63
2021/07/15 17:08:58;;;;;;;11.25;6.55;;;23.50;72.00;;;;;;4879715;29;20501;-63
2021/07/15 17:11:24;;;;;;;11.20;6.28;;;23.50;72.10;;;;;;4879883;29;20108;-63
2021/07/15 17:13:50;;;;;;;9.23;5.95;;;23.50;72.20;;;;;;4879836;29;20029;-63
2021/07/15 17:16:16;;;;;;;9.75;5.35;;;23.50;72.10;;;;;;4879798;29;20033;-63
2021/07/15 17:18:42;;;;;;;8.95;5.55;;;23.50;72.10;;;;;;4879523;29;20064;-64
2021/07/15 17:21:08;;;;;;;12.63;5.50;;;23.50;72.10;;;;;;4879690;29;20029;-64
2021/07/15 17:23:34;;;;;;;12.80;5.15;;;23.50;72.00;;;;;;4879543;29;20029;-64
2021/07/15 17:26:02;;;;;;;9.75;5.82;;;23.50;72.00;;;;;;4879452;29;20032;-64
2021/07/15 17:28:29;;;;;;;7.97;5.47;;;23.50;72.00;;;;;;4878213;29;20021;-64
2021/07/15 17:30:55;;;;;;;7.50;4.82;;;23.50;71.90;;;;;;4879226;29;20365;-64
2021/07/15 17:33:21;;;;;;;8.10;5.32;;;23.50;71.90;;;;;;4879253;29;20028;-64
2021/07/15 17:35:46;;;;;;;7.38;5.30;;;23.50;71.70;;;;;;4879385;29;20040;-64
2021/07/15 17:38:12;;;;;;;8.05;5.43;;;23.50;71.80;;;;;;4879193;29;20072;-62
2021/07/15 17:40:38;;;;;;;9.50;5.50;;;23.50;71.70;;;;;;4878543;29;20033;-64
2021/07/15 17:43:04;;;;;;;7.65;5.10;;;23.50;71.80;;;;;;4879151;29;20029;-64
2021/07/15 17:45:30;;;;;;;11.90;4.80;;;23.50;71.70;;;;;;4877826;29;20162;-64
2021/07/15 17:47:57;;;;;;;10.27;5.68;;;23.50;71.70;;;;;;4877927;29;20128;-64
2021/07/15 17:50:24;;;;;;;9.73;5.30;;;23.50;71.60;;;;;;4879393;29;20029;-64
2021/07/15 17:52:50;;;;;;;8.73;4.78;;;23.50;71.60;;;;;;4879106;29;20021;-64
2021/07/15 17:55:16;;;;;;;8.32;5.00;;;23.50;71.60;;;;;;4878975;29;20017;-64
2021/07/15 17:57:42;;;;;;;7.95;4.70;;;23.50;71.60;;;;;;4879026;29;20081;-64
2021/07/15 18:00:17;;;;;;;8.75;5.03;;;23.50;71.50;;;;;;4879103;29;20021;-65
2021/07/15 18:02:43;;;;;;;10.05;4.97;;;23.50;71.50;;;;;;4878723;29;20053;-63
2021/07/15 18:05:10;;;;;;;9.18;4.70;;;23.50;71.50;;;;;;4878847;29;20049;-64
2021/07/15 18:07:38;;;;;;;7.95;5.72;;;23.50;71.50;;;;;;4877629;29;20029;-63
2021/07/15 18:10:06;;;;;;;7.40;4.78;;;23.50;71.40;;;;;;4878989;29;20063;-63
2021/07/15 18:12:32;;;;;;;8.27;5.30;;;23.50;71.40;;;;;;4878953;29;20104;-64
2021/07/15 18:14:57;;;;;;;8.32;5.32;;;23.50;71.30;;;;;;4878916;29;20057;-64
2021/07/15 18:17:23;;;;;;;7.00;4.32;;;23.40;71.40;;;;;;4879113;29;20036;-64
2021/07/15 18:19:48;;;;;;;7.20;4.82;;;23.40;71.30;;;;;;4879021;29;20029;-64
2021/07/15 18:22:14;;;;;;;7.90;4.63;;;23.40;71.40;;;;;;4877676;29;20036;-64
2021/07/15 18:24:39;;;;;;;8.85;5.20;;;23.50;71.30;;;;;;4877642;29;20136;-64
2021/07/15 18:27:05;;;;;;;12.13;4.60;;;23.40;71.30;;;;;;4878929;29;20032;-64
2021/07/15 18:29:31;;;;;;;7.32;4.63;;;23.40;71.20;;;;;;4878893;29;20370;-63
2021/07/15 18:31:57;;;;;;;8.85;5.03;;;23.40;71.20;;;;;;4877575;29;20032;-64
2021/07/15 18:34:22;;;;;;;7.53;4.40;;;23.40;71.30;;;;;;4878816;29;20030;-64
2021/07/15 18:36:48;;;;;;;7.22;4.85;;;23.40;71.30;;;;;;4879079;29;20081;-64
2021/07/15 18:39:16;;;;;;;7.82;4.63;;;23.40;71.20;;;;;;4878754;29;20089;-64
2021/07/15 18:41:44;;;;;;;6.72;4.47;;;23.40;71.20;;;;;;4878885;29;20128;-64
2021/07/15 18:44:10;;;;;;;7.60;4.53;;;23.40;71.20;;;;;;4878584;29;20025;-64
2021/07/15 18:46:35;;;;;;;9.15;4.97;;;23.40;71.20;;;;;;4878748;29;20039;-64
2021/07/15 18:49:02;;;;;;;8.48;4.65;;;23.40;71.20;;;;;;4878680;29;20033;-64
2021/07/15 18:51:28;;;;;;;8.88;5.15;;;23.40;71.20;;;;;;4880761;29;20052;-64
2021/07/15 18:53:53;;;;;;;7.50;4.40;;;23.40;71.10;;;;;;4882062;29;20083;-64
2021/07/15 18:56:19;;;;;;;7.53;4.97;;;23.30;71.20;;;;;;4880728;29;20033;-63
2021/07/15 18:58:44;;;;;;;7.07;4.55;;;23.40;71.20;;;;;;4881771;29;20045;-63
2021/07/15 19:01:10;;;;;;;7.03;4.38;;;23.30;71.20;;;;;;4881814;29;20037;-63
2021/07/15 19:03:35;;;;;;;7.70;4.82;;;23.40;71.10;;;;;;4880304;29;20044;-63
2021/07/15 19:06:01;;;;;;;8.38;5.38;;;23.30;71.20;;;;;;4881602;29;20454;-64
2021/07/15 19:08:26;;;;;;;6.93;4.78;;;23.30;71.10;;;;;;4881750;29;20414;-63
2021/07/15 19:10:54;;;;;;;9.27;5.10;;;23.30;71.10;;;;;;4881639;29;20089;-64
2021/07/15 19:13:20;;;;;;;8.02;5.20;;;23.30;71.10;;;;;;4881614;29;20021;-64
2021/07/15 19:15:45;;;;;;;10.15;4.75;;;23.30;71.10;;;;;;4881570;29;20044;-63
2021/07/15 19:18:11;;;;;;;6.65;4.22;;;23.30;71.10;;;;;;4881537;29;20025;-63
2021/07/15 19:20:36;;;;;;;7.22;4.53;;;23.30;71.10;;;;;;4881515;29;20021;-63
2021/07/15 19:23:02;;;;;;;6.80;4.53;;;23.20;71.10;;;;;;4881592;29;20029;-63
2021/07/15 19:25:28;;;;;;;7.40;4.93;;;23.30;71.10;;;;;;4881394;29;20116;-63
2021/07/15 19:27:54;;;;;;;8.82;4.65;;;23.30;71.10;;;;;;4881515;29;20104;-64
2021/07/15 19:30:23;;;;;;;9.25;5.05;;;23.20;71.00;;;;;;4881547;29;20028;-64
2021/07/15 19:32:49;;;;;;;9.32;5.07;;;23.20;71.10;;;;;;4881446;29;20392;-63
2021/07/15 19:35:16;;;;;;;9.23;4.68;;;23.20;71.10;;;;;;4881227;29;20059;-64
2021/07/15 19:37:42;;;;;;;7.00;4.60;;;23.20;71.10;;;;;;4881267;29;20056;-64
2021/07/15 19:40:11;;;;;;;7.78;4.40;;;23.20;71.10;;;;;;4881255;29;20473;-65
2021/07/15 19:42:39;;;;;;;8.18;4.80;;;23.20;71.10;;;;;;4881342;29;20048;-64
2021/07/15 19:45:06;;;;;;;9.38;5.05;;;23.20;71.10;;;;;;4881232;29;20041;-63
2021/07/15 19:47:31;;;;;;;8.02;4.95;;;23.20;71.10;;;;;;4879926;29;20049;-63
2021/07/15 19:49:57;;;;;;;7.10;4.53;;;23.20;71.00;;;;;;4881070;29;20068;-62
2021/07/15 19:52:22;;;;;;;7.10;4.72;;;23.20;71.10;;;;;;4881040;29;20085;-63
2021/07/15 19:54:48;;;;;;;7.72;5.00;;;23.20;71.10;;;;;;4880909;29;20064;-62
2021/07/15 19:57:13;;;;;;;7.43;4.50;;;23.20;71.10;;;;;;4881171;29;20107;-63
2021/07/15 19:59:39;;;;;;;6.75;4.55;;;23.20;71.10;;;;;;4880967;29;20048;-62